Bode, IA (50519)

01:22 CDT le 22 octobre 2014 (GMT -0500)
Farm Acreage | Change Station
CLOSE
Current Station
Stations météorologiques personnelles
Location: Bode, IA
Altitude: 1130 ft
Stations météo à proximité

Alt. 1130 ft 42.96 °N, 94.29 °W | Updated 1 minute ago

Ciel dégagé
Ciel dégagé
45.5 ° F
Paraît 42 ° F
N
6.0
Vent Variable Vent de SE
Gusts 9.0 mph

Aujourd'hui
Haut(e) -- | Bas -- ° F
--% Risque de précip.
Hier
Haut(e) -- | Bas -- ° F
Precip. -- pouce
7:38 AM 6:23 PM
Lune descendante, 3% visible
Pression 30.15 pouce
Visibilité 10.0 Miles terrestres
Nuages Ciel dégagé
Refroidissement éolien 42 ° F
Point de rosée 40 ° F
Humidité 82%
Précipitations 0.00 pouce
Profondeur de la couche neigeuse Non disponible.
UV 0 sur 12
Pollen 1.70 sur 12
Qualité de l'air Non disponible.
Flu Activity Sporadic
METAR KAXA 220615Z AUTO 14011KT 10SM CLR 08/04 A3015 RMK AO2

More Conditions Fewer Conditions

Pression 30.15 pouce
Visibilité 10.0 Miles terrestres
Nuages Ciel dégagé
Refroidissement éolien 42 ° F
Point de rosée 40 ° F
Humidité 82%
Précipitations 0.00 pouce
Profondeur de la couche neigeuse Non disponible.
UV 0 sur 12
Pollen 1.70 sur 12
Qualité de l'air Non disponible.
Flu Activity Sporadic
METAR KAXA 220615Z AUTO 14011KT 10SM CLR 08/04 A3015 RMK AO2

More Conditions Fewer Conditions

10-Day Weather Forecast

Almanac

Astronomie

Oct. 22, 2014 Lever Coucher
Temps réel 07:38 CDT 18:23 CDT
Crépuscule civil 07:10 CDT 18:52 CDT
Crépuscule nautique 06:37 CDT 19:25 CDT
Crépuscule astronomique 06:04 CDT 19:58 CDT
Lune 06:19 CDT 17:51 CDT
Durée de lumière visible 11h 42m
Longueur du jour
10h 44m
Tomorrow will be 2m 44s shorter.
Lune descendante, 3% of the Moon is Illuminated
Aujourd'hui
Lune descendante
Oct 23
Nouveau
Oct 30
Premier quartier
Nov 6
Pleine lune
Nov 14
Dernier quartier

Extrêmes aujourd'hui

State Highs State Lows

Community

WunderPhotos

Upload Photos

1,763,885 Photos téléchargées !

Nearby

Épaisseur de neige

Station Depth Altitude
Pas de nouvelles chutes de neige

Activité sismique

Ville Distance Mag. Time & Date
No recent earthquake activity has been reported nearby.
Minimum magnitude displayed is 2.5.

Températures des eaux côtières

Lieu Température
Aucun rapport de station

Stations météo à proximité